This is the latest recevied weather packets stored in our database for station/object N4TLC. If no packets are shown the sender has not sent any weather packets the latest 10 day(s).
| Time | Temp. | Humidity | Pressure | Rain* | Wind** | Luminosity | Snow |
|---|---|---|---|---|---|---|---|
| 1777899910 | 13.89° C | 61% | 1018.8 hPa | 0 mm | - | 55 W/m² | - |
| 1777899608 | 13.89° C | 63% | 1018.8 hPa | 0 mm | - | 56 W/m² | - |
| 1777899305 | 13.33° C | 65% | 1019.1 hPa | 0 mm | - | 88 W/m² | - |
| 1777899003 | 12.78° C | 67% | 1018.9 hPa | 0 mm | - | 62 W/m² | - |
| 1777898699 | 12.78° C | 67% | 1018.8 hPa | 0 mm | - | 55 W/m² | - |
| 1777898397 | 12.22° C | 68% | 1018.8 hPa | 0 mm | - | 50 W/m² | - |
| 1777898094 | 12.22° C | 70% | 1018.7 hPa | 0 mm | - | 47 W/m² | - |
| 1777897790 | 11.67° C | 73% | 1018.7 hPa | 0 mm | - | 46 W/m² | - |
| 1777897487 | 11.11° C | 74% | 1018.7 hPa | 0 mm | - | 44 W/m² | - |
| 1777897183 | 10.56° C | 76% | 1018.8 hPa | 0 mm | - | 43 W/m² | - |
| 1777896878 | 10° C | 78% | 1018.9 hPa | 0 mm | - | 42 W/m² | - |
| 1777896576 | 10° C | 78% | 1019 hPa | 0 mm | - | 41 W/m² | - |
| 1777896273 | 9.44° C | 79% | 1019 hPa | 0 mm | - | 40 W/m² | - |
| 1777895971 | 8.89° C | 80% | 1019 hPa | 0 mm | - | 36 W/m² | - |
| 1777895669 | 8.89° C | 82% | 1018.9 hPa | 0 mm | - | 34 W/m² | - |
| 1777895366 | 8.33° C | 84% | 1018.9 hPa | 0 mm | - | 36 W/m² | - |
| 1777895064 | 7.78° C | 88% | 1019.1 hPa | 0 mm | - | 36 W/m² | - |
| 1777894760 | 7.78° C | 90% | 1018.9 hPa | 0 mm | - | 40 W/m² | - |
| 1777894457 | 7.22° C | 91% | 1019 hPa | 0 mm | - | 35 W/m² | - |
| 1777894155 | 6.67° C | 91% | 1018.9 hPa | 0 mm | - | 33 W/m² | - |
| 1777893852 | 6.67° C | 91% | 1018.8 hPa | 0 mm | - | 32 W/m² | - |
| 1777893548 | 6.11° C | 91% | 1018.8 hPa | 0 mm | - | 29 W/m² | - |
| 1777893244 | 6.11° C | 91% | 1018.7 hPa | 0 mm | - | 26 W/m² | - |
| 1777892941 | 6.11° C | 91% | 1018.8 hPa | 0 mm | - | 24 W/m² | - |
| 1777892638 | 5.56° C | 91% | 1019 hPa | 0 mm | - | 22 W/m² | - |
* Rain latest hour (hover to see other rain measurements)
** Current wind speed in m/s (hover to see current wind gust speed)